createdAt,value
2018-02-17T00:01:04.338Z,51.17
2018-02-17T00:03:31.164Z,51.78
2018-02-17T00:05:57.994Z,54.55
2018-02-17T00:08:25.585Z,61.15
2018-02-17T00:10:52.422Z,57.72
2018-02-17T00:13:19.267Z,58.75
2018-02-17T00:15:46.160Z,64.05
2018-02-17T00:18:13.009Z,55.42
2018-02-17T00:20:39.873Z,56.50
2018-02-17T00:23:07.466Z,51.45
2018-02-17T00:25:34.374Z,59.08
2018-02-17T00:28:01.217Z,56.75
2018-02-17T00:30:28.043Z,67.57
2018-02-17T00:32:54.905Z,52.45
2018-02-17T00:35:21.838Z,56.17
2018-02-17T00:37:48.690Z,57.58
2018-02-17T00:40:15.517Z,56.65
2018-02-17T00:42:42.327Z,59.80
2018-02-17T00:45:09.243Z,49.45
2018-02-17T00:47:36.806Z,55.50
2018-02-17T00:50:03.638Z,45.55
2018-02-17T00:52:30.494Z,53.13
2018-02-17T00:54:58.159Z,50.85
2018-02-17T00:57:24.994Z,51.85
2018-02-17T00:59:51.830Z,50.88
2018-02-17T01:02:18.638Z,54.47
2018-02-17T01:04:45.526Z,57.70
2018-02-17T01:07:13.112Z,53.00
2018-02-17T01:09:39.995Z,52.00
2018-02-17T01:12:07.566Z,51.60
2018-02-17T01:14:34.412Z,54.85
2018-02-17T01:17:01.287Z,47.03
2018-02-17T01:19:28.130Z,48.38
2018-02-17T01:21:55.742Z,50.28
2018-02-17T01:24:22.730Z,50.40
2018-02-17T01:26:50.333Z,48.28
2018-02-17T01:29:17.163Z,55.70
2018-02-17T01:31:44.027Z,59.42
2018-02-17T01:34:10.898Z,54.22
2018-02-17T01:36:37.733Z,58.20
2018-02-17T01:39:04.582Z,66.22
2018-02-17T01:41:31.415Z,55.30
2018-02-17T01:43:58.271Z,52.58
2018-02-17T01:46:25.146Z,52.97
2018-02-17T01:48:51.941Z,50.05
2018-02-17T01:51:18.746Z,50.53
2018-02-17T01:53:45.716Z,57.83
2018-02-17T01:56:12.539Z,54.85
2018-02-17T01:58:40.126Z,48.80
2018-02-17T02:01:07.699Z,57.65
2018-02-17T02:03:34.519Z,59.78
2018-02-17T02:06:01.361Z,54.22
2018-02-17T02:08:28.936Z,47.05
2018-02-17T02:10:55.750Z,57.62
2018-02-17T02:13:22.589Z,53.13
2018-02-17T02:15:49.522Z,57.85
2018-02-17T02:18:16.360Z,58.20
2018-02-17T02:20:43.154Z,53.30
2018-02-17T02:23:10.026Z,55.40
2018-02-17T02:25:36.877Z,60.08
2018-02-17T02:28:03.698Z,49.67
2018-02-17T02:30:30.534Z,56.58
2018-02-17T02:32:57.362Z,51.97
2018-02-17T02:35:24.287Z,62.97
2018-02-17T02:37:51.098Z,52.35
2018-02-17T02:40:17.906Z,46.70
2018-02-17T02:42:45.462Z,54.75
2018-02-17T02:45:12.402Z,51.85
2018-02-17T02:47:39.242Z,52.88
2018-02-17T02:50:06.810Z,54.33
2018-02-17T02:52:34.351Z,55.65
2018-02-17T02:55:02.017Z,58.28
2018-02-17T02:57:28.803Z,52.50
2018-02-17T02:59:55.638Z,56.00
2018-02-17T03:02:22.475Z,57.25
2018-02-17T03:04:49.330Z,53.42
2018-02-17T03:07:16.151Z,53.97
2018-02-17T03:09:42.991Z,47.28
2018-02-17T03:12:09.818Z,58.85
2018-02-17T03:14:36.705Z,51.13
2018-02-17T03:17:03.546Z,54.88
2018-02-17T03:19:30.384Z,52.03
2018-02-17T03:21:57.199Z,52.30
2018-02-17T03:24:24.132Z,51.10
2018-02-17T03:26:50.959Z,59.58
2018-02-17T03:29:17.759Z,55.75
2018-02-17T03:31:44.611Z,52.65
2018-02-17T03:34:11.469Z,49.85
2018-02-17T03:36:39.066Z,50.55
2018-02-17T03:39:05.863Z,51.03
2018-02-17T03:41:32.682Z,54.50
2018-02-17T03:43:59.570Z,55.60
2018-02-17T03:46:27.130Z,49.60
2018-02-17T03:48:54.702Z,44.03
2018-02-17T03:51:22.287Z,52.35
2018-02-17T03:53:49.185Z,49.17
2018-02-17T03:56:16.007Z,47.75
2018-02-17T03:58:42.818Z,50.58
2018-02-17T04:01:09.637Z,46.03
2018-02-17T04:03:36.510Z,48.53
2018-02-17T04:06:03.332Z,51.45
2018-02-17T04:08:30.861Z,47.95
2018-02-17T04:10:58.448Z,42.38
2018-02-17T04:13:25.270Z,43.28
2018-02-17T04:15:52.886Z,45.00
2018-02-17T04:18:19.725Z,40.70
2018-02-17T04:20:46.544Z,43.25
2018-02-17T04:23:13.409Z,42.85
2018-02-17T04:25:40.234Z,40.03
2018-02-17T04:28:07.058Z,39.95
2018-02-17T04:30:34.631Z,43.85
2018-02-17T04:33:01.454Z,41.45
2018-02-17T04:35:29.054Z,46.85
2018-02-17T04:37:55.965Z,39.95
2018-02-17T04:40:22.798Z,39.85
2018-02-17T04:45:53.733Z,35.05
2018-02-17T04:48:26.750Z,42.05
2018-02-17T04:50:56.506Z,40.40
2018-02-17T04:53:38.250Z,35.67
2018-02-17T04:56:25.655Z,45.03
2018-02-17T04:59:10.178Z,43.92
2018-02-17T05:01:55.731Z,42.75
2018-02-17T05:04:25.357Z,36.30
2018-02-17T05:07:07.126Z,39.35
2018-02-17T05:09:33.991Z,41.53
2018-02-17T05:12:00.826Z,39.28
2018-02-17T05:14:27.842Z,36.53
2018-02-17T05:17:00.686Z,45.40
2018-02-17T05:19:29.449Z,50.05
2018-02-17T05:22:13.122Z,41.33
2018-02-17T05:24:55.332Z,41.03
2018-02-17T05:27:24.702Z,39.25
2018-02-17T05:29:53.598Z,41.90
2018-02-17T05:32:21.489Z,44.42
2018-02-17T05:35:04.055Z,44.70
2018-02-17T05:37:46.545Z,39.88
2018-02-17T05:40:31.206Z,39.85
2018-02-17T05:43:13.526Z,37.72
2018-02-17T05:45:46.941Z,40.17
2018-02-17T05:48:13.812Z,45.25
2018-02-17T05:50:41.441Z,39.42
2018-02-17T05:53:08.255Z,37.28
2018-02-17T05:55:35.642Z,35.58
2018-02-17T05:58:02.614Z,39.58
2018-02-17T06:00:29.598Z,45.60
2018-02-17T06:02:56.414Z,43.53
2018-02-17T06:05:24.110Z,41.28
2018-02-17T06:07:51.001Z,44.10
2018-02-17T06:10:18.579Z,39.85
2018-02-17T06:12:45.675Z,43.25
2018-02-17T06:15:12.826Z,41.15
2018-02-17T06:17:39.778Z,43.95
2018-02-17T06:20:06.893Z,43.33
2018-02-17T06:22:33.738Z,44.92
2018-02-17T06:25:00.637Z,44.42
2018-02-17T06:27:28.209Z,51.30
2018-02-17T06:29:55.268Z,49.45
2018-02-17T06:32:23.063Z,54.53
2018-02-17T06:34:50.027Z,54.20
2018-02-17T06:37:16.875Z,49.95
2018-02-17T06:39:43.702Z,51.50
2018-02-17T06:42:10.536Z,46.60
2018-02-17T06:44:37.462Z,47.15
2018-02-17T06:47:04.278Z,50.17
2018-02-17T06:49:33.240Z,49.35
2018-02-17T06:52:00.151Z,57.08
2018-02-17T06:54:27.226Z,50.65
2018-02-17T06:56:54.224Z,49.33
2018-02-17T06:59:21.624Z,44.80
2018-02-17T07:01:49.430Z,43.20
2018-02-17T07:04:16.358Z,43.60
2018-02-17T07:06:44.159Z,48.40
2018-02-17T07:09:11.191Z,45.22
2018-02-17T07:11:42.245Z,45.30
2018-02-17T07:14:10.406Z,45.70
2018-02-17T07:16:37.296Z,44.33
2018-02-17T07:19:04.144Z,43.17
2018-02-17T07:21:31.035Z,41.35
2018-02-17T07:23:58.845Z,46.05
2018-02-17T07:26:25.778Z,48.40
2018-02-17T07:28:52.649Z,40.38
2018-02-17T07:31:19.654Z,45.28
2018-02-17T07:33:47.274Z,38.15
2018-02-17T07:36:15.060Z,43.70
2018-02-17T07:38:41.939Z,36.75
2018-02-17T07:41:08.904Z,43.42
2018-02-17T07:43:35.839Z,32.60
2018-02-17T07:46:02.986Z,41.05
2018-02-17T07:48:29.838Z,41.95
2018-02-17T07:50:56.671Z,36.85
2018-02-17T07:53:23.811Z,37.60
2018-02-17T07:55:50.814Z,36.05
2018-02-17T07:58:17.780Z,30.67
2018-02-17T08:00:44.690Z,35.03
2018-02-17T08:03:11.566Z,37.33
2018-02-17T08:05:38.478Z,33.03
2018-02-17T08:08:06.094Z,35.47
2018-02-17T08:10:32.953Z,37.42
2018-02-17T08:12:59.850Z,48.50
2018-02-17T08:15:26.833Z,42.22
2018-02-17T08:17:53.681Z,48.13
2018-02-17T08:20:20.558Z,38.05
2018-02-17T08:22:48.411Z,37.65
2018-02-17T08:25:16.170Z,42.05
2018-02-17T08:27:43.020Z,35.13
2018-02-17T08:30:10.067Z,39.22
2018-02-17T08:32:36.991Z,42.13
2018-02-17T08:35:03.894Z,37.67
2018-02-17T08:37:30.994Z,36.10
2018-02-17T08:39:57.891Z,33.63
2018-02-17T08:42:24.739Z,36.80
2018-02-17T08:44:51.665Z,38.30
2018-02-17T08:47:18.490Z,37.15
2018-02-17T08:49:46.098Z,37.53
2018-02-17T08:52:12.966Z,33.50
2018-02-17T08:54:39.990Z,35.78
2018-02-17T08:57:06.825Z,35.33
2018-02-17T08:59:33.683Z,30.47
2018-02-17T09:02:00.529Z,38.38
2018-02-17T09:04:27.463Z,35.22
2018-02-17T09:06:54.345Z,32.60
2018-02-17T09:09:21.203Z,35.60
2018-02-17T09:11:48.094Z,36.42
2018-02-17T09:14:15.015Z,33.10
2018-02-17T09:16:41.882Z,38.63
2018-02-17T09:19:08.737Z,35.95
2018-02-17T09:21:35.681Z,37.65
2018-02-17T09:24:02.578Z,40.17
2018-02-17T09:26:30.274Z,45.58
2018-02-17T09:28:57.142Z,41.85
2018-02-17T09:31:23.983Z,35.73
2018-02-17T09:33:50.846Z,48.87
2018-02-17T09:36:17.729Z,43.63
2018-02-17T09:38:44.597Z,43.13
2018-02-17T09:41:11.422Z,41.37
2018-02-17T09:43:38.264Z,41.10
2018-02-17T09:46:05.131Z,40.20
2018-02-17T09:48:31.978Z,42.07
2018-02-17T09:50:58.789Z,42.40
2018-02-17T09:53:25.642Z,40.30
2018-02-17T09:55:52.561Z,39.13
2018-02-17T09:58:20.130Z,41.17
2018-02-17T10:00:47.730Z,37.50
2018-02-17T10:03:14.586Z,42.05
2018-02-17T10:05:41.543Z,37.50
2018-02-17T10:08:08.392Z,34.03
2018-02-17T10:10:35.407Z,32.20
2018-02-17T10:13:02.499Z,37.37
2018-02-17T10:15:30.480Z,30.83
2018-02-17T10:17:58.119Z,37.90
2018-02-17T10:20:25.702Z,42.03
2018-02-17T10:22:52.592Z,40.40
2018-02-17T10:25:19.454Z,35.03
2018-02-17T10:27:46.558Z,37.00
2018-02-17T10:30:13.520Z,34.37
2018-02-17T10:32:40.698Z,40.53
2018-02-17T10:35:07.650Z,42.70
2018-02-17T10:37:34.587Z,32.53
2018-02-17T10:40:02.262Z,42.20
2018-02-17T10:42:29.112Z,33.07
2018-02-17T10:44:56.142Z,32.33
2018-02-17T10:47:23.767Z,33.30
2018-02-17T10:49:50.827Z,33.33
2018-02-17T10:52:18.482Z,36.37
2018-02-17T10:54:45.480Z,36.87
2018-02-17T10:57:13.138Z,34.00
2018-02-17T10:59:40.902Z,33.47
2018-02-17T11:02:08.066Z,32.30
2018-02-17T11:04:35.099Z,29.77
2018-02-17T11:07:02.030Z,34.90
2018-02-17T11:09:29.712Z,36.50
2018-02-17T11:11:57.372Z,39.43
2018-02-17T11:14:24.451Z,33.50
2018-02-17T11:16:52.078Z,36.40
2018-02-17T11:19:19.039Z,27.20
2018-02-17T11:21:46.820Z,25.70
2018-02-17T11:24:13.718Z,22.93
2018-02-17T11:26:40.608Z,26.20
2018-02-17T11:29:08.274Z,29.03
2018-02-17T11:31:35.135Z,30.10
2018-02-17T11:34:02.056Z,26.83
2018-02-17T11:36:28.880Z,27.47
2018-02-17T11:38:55.705Z,26.23
2018-02-17T11:41:22.562Z,30.17
2018-02-17T11:43:49.483Z,24.83
2018-02-17T11:46:16.360Z,24.63
2018-02-17T11:48:44.618Z,24.50
2018-02-17T11:51:11.595Z,29.70
2018-02-17T11:53:38.441Z,27.23
2018-02-17T11:56:05.314Z,27.67
2018-02-17T11:58:32.235Z,28.30
2018-02-17T12:00:59.107Z,27.07
2018-02-17T12:03:26.017Z,28.43
2018-02-17T12:05:53.071Z,28.73
2018-02-17T12:08:20.032Z,29.40
2018-02-17T12:10:46.979Z,30.20
2018-02-17T12:13:13.874Z,29.13
2018-02-17T12:15:40.792Z,31.00
2018-02-17T12:18:08.575Z,30.27
2018-02-17T12:20:35.625Z,31.97
2018-02-17T12:23:03.210Z,31.77
2018-02-17T12:25:30.220Z,30.87
2018-02-17T12:27:57.831Z,31.40
2018-02-17T12:30:25.507Z,30.17
2018-02-17T12:32:52.418Z,32.07
2018-02-17T12:35:19.323Z,29.10
2018-02-17T12:37:46.215Z,28.90
2018-02-17T12:40:13.107Z,31.93
2018-02-17T12:42:39.936Z,32.20
2018-02-17T12:45:06.922Z,30.60
2018-02-17T12:47:33.766Z,34.07
2018-02-17T12:50:01.615Z,26.13
2018-02-17T12:52:28.478Z,26.13
2018-02-17T12:54:56.119Z,26.30
2018-02-17T12:57:22.982Z,26.43
2018-02-17T12:59:49.970Z,25.30
2018-02-17T13:02:16.863Z,27.57
2018-02-17T13:04:43.838Z,28.53
2018-02-17T13:07:10.703Z,26.80
2018-02-17T13:09:37.639Z,27.00
2018-02-17T13:12:04.470Z,29.57
2018-02-17T13:14:31.641Z,28.10
2018-02-17T13:16:59.435Z,27.73
2018-02-17T13:19:26.319Z,26.97
2018-02-17T13:21:53.343Z,27.67
2018-02-17T13:24:20.298Z,27.10
2018-02-17T13:26:47.188Z,27.10
2018-02-17T13:29:14.863Z,30.47
2018-02-17T13:31:41.711Z,30.50
2018-02-17T13:34:08.599Z,30.20
2018-02-17T13:36:36.241Z,30.23
2018-02-17T13:39:03.151Z,28.47
2018-02-17T13:41:30.004Z,29.43
2018-02-17T13:43:56.915Z,26.87
2018-02-17T13:46:23.976Z,24.60
2018-02-17T13:48:50.844Z,23.97
2018-02-17T13:51:18.457Z,22.50
2018-02-17T13:53:45.363Z,20.40
2018-02-17T13:56:12.386Z,25.77
2018-02-17T13:58:40.027Z,21.40
2018-02-17T14:01:06.886Z,18.90
2018-02-17T14:03:33.730Z,19.37
2018-02-17T14:06:00.614Z,15.80
2018-02-17T14:08:28.221Z,16.87
2018-02-17T14:10:55.084Z,23.00
2018-02-17T14:13:22.006Z,16.33
2018-02-17T14:15:48.914Z,20.00
2018-02-17T14:18:16.704Z,18.73
2018-02-17T14:20:43.572Z,20.27
2018-02-17T14:23:10.439Z,19.43
2018-02-17T14:25:37.298Z,21.60
2018-02-17T14:28:04.267Z,23.03
2018-02-17T14:30:31.851Z,17.47
2018-02-17T14:32:58.682Z,18.37
2018-02-17T14:35:25.647Z,22.13
2018-02-17T14:37:52.537Z,21.10
2018-02-17T14:40:19.362Z,27.13
2018-02-17T14:42:46.273Z,22.40
2018-02-17T14:45:14.120Z,23.53
2018-02-17T14:47:40.971Z,21.90
2018-02-17T14:50:07.835Z,25.33
2018-02-17T14:52:34.782Z,23.23
2018-02-17T14:55:01.700Z,24.70
2018-02-17T14:57:28.632Z,23.30
2018-02-17T14:59:55.472Z,22.70
2018-02-17T15:02:22.351Z,28.27
2018-02-17T15:04:49.270Z,26.53
2018-02-17T15:07:16.135Z,23.33
2018-02-17T15:09:42.972Z,27.60
2018-02-17T15:12:09.842Z,27.48
2018-02-17T15:14:36.830Z,28.15
2018-02-17T15:17:04.500Z,27.75
2018-02-17T15:19:31.399Z,36.53
2018-02-17T15:21:58.290Z,40.28
2018-02-17T15:24:25.216Z,29.33
2018-02-17T15:26:52.139Z,35.97
2018-02-17T15:29:19.003Z,35.03
2018-02-17T15:31:46.607Z,36.58
2018-02-17T15:34:13.510Z,35.25
2018-02-17T15:36:40.399Z,28.27
2018-02-17T15:39:08.034Z,29.55
2018-02-17T15:41:35.046Z,30.30
2018-02-17T15:44:02.231Z,27.58
2018-02-17T15:46:30.071Z,31.50
2018-02-17T15:48:57.067Z,25.20
2018-02-17T15:51:23.931Z,33.00
2018-02-17T15:53:51.034Z,28.80
2018-02-17T15:56:18.110Z,34.33
2018-02-17T15:58:45.064Z,28.17
2018-02-17T16:01:12.935Z,27.62
2018-02-17T16:03:39.878Z,29.52
2018-02-17T16:06:06.928Z,31.15
2018-02-17T16:08:33.937Z,29.33
2018-02-17T16:11:00.812Z,33.33
2018-02-17T16:13:27.700Z,27.70
2018-02-17T16:15:55.467Z,29.08
2018-02-17T16:18:22.454Z,29.33
2018-02-17T16:20:49.518Z,29.10
2018-02-17T16:23:16.572Z,25.35
2018-02-17T16:25:43.551Z,29.48
2018-02-17T16:28:11.127Z,29.27
2018-02-17T16:30:38.019Z,34.35
2018-02-17T16:33:04.868Z,34.38
2018-02-17T16:35:31.838Z,32.05
2018-02-17T16:37:59.424Z,32.63
2018-02-17T16:40:26.280Z,33.15
2018-02-17T16:42:53.144Z,34.08
2018-02-17T16:45:20.034Z,28.55
2018-02-17T16:47:46.858Z,28.40
2018-02-17T16:50:13.742Z,37.67
2018-02-17T16:52:40.582Z,40.08
2018-02-17T16:55:07.493Z,34.92
2018-02-17T16:57:34.355Z,38.67
2018-02-17T17:00:01.950Z,37.78
2018-02-17T17:02:28.823Z,41.17
2018-02-17T17:04:55.679Z,41.37
2018-02-17T17:07:23.321Z,40.50
2018-02-17T17:09:50.178Z,49.40
2018-02-17T17:12:17.055Z,42.30
2018-02-17T17:14:44.693Z,45.83
2018-02-17T17:17:11.595Z,46.70
2018-02-17T17:19:38.598Z,47.60
2018-02-17T17:22:06.299Z,46.72
2018-02-17T17:24:33.340Z,49.90
2018-02-17T17:27:00.242Z,45.58
2018-02-17T17:29:28.118Z,51.95
2018-02-17T17:31:54.975Z,50.25
2018-02-17T17:34:22.623Z,51.17
2018-02-17T17:36:50.186Z,47.60
2018-02-17T17:39:17.030Z,45.65
2018-02-17T17:41:44.614Z,51.15
2018-02-17T17:44:11.738Z,48.05
2018-02-17T17:46:38.740Z,50.45
2018-02-17T17:49:05.595Z,53.42
2018-02-17T17:51:32.426Z,48.28
2018-02-17T17:54:00.325Z,58.30
2018-02-17T17:56:27.249Z,52.78
2018-02-17T17:58:54.113Z,60.75
2018-02-17T18:01:21.051Z,52.90
2018-02-17T18:03:48.014Z,52.97
2018-02-17T18:06:14.875Z,56.13
2018-02-17T18:08:42.439Z,50.08
2018-02-17T18:11:09.311Z,60.17
2018-02-17T18:13:36.188Z,46.22
2018-02-17T18:16:03.066Z,47.55
2018-02-17T18:18:29.946Z,50.90
2018-02-17T18:20:56.838Z,60.85
2018-02-17T18:23:24.421Z,51.63
2018-02-17T18:25:51.339Z,56.13
2018-02-17T18:28:18.210Z,47.60
2018-02-17T18:30:45.067Z,55.55
2018-02-17T18:33:11.910Z,50.85
2018-02-17T18:35:38.811Z,53.17
2018-02-17T18:38:05.660Z,53.28
2018-02-17T18:40:34.134Z,56.35
2018-02-17T18:43:00.971Z,60.15
2018-02-17T18:45:28.620Z,53.45
2018-02-17T18:47:55.515Z,56.88
2018-02-17T18:50:22.415Z,52.80
2018-02-17T18:52:50.019Z,50.47
2018-02-17T18:55:17.646Z,48.42
2018-02-17T18:57:44.619Z,47.00
2018-02-17T19:00:11.703Z,54.70
2018-02-17T19:02:38.567Z,47.17
2018-02-17T19:05:07.560Z,45.00
2018-02-17T19:07:35.961Z,47.80
2018-02-17T19:10:02.992Z,51.58
2018-02-17T19:12:30.742Z,50.03
2018-02-17T19:14:57.915Z,56.17
2018-02-17T19:17:24.847Z,45.58
2018-02-17T19:19:51.866Z,54.10
2018-02-17T19:22:18.708Z,51.50
2018-02-17T19:24:45.759Z,54.33
2018-02-17T19:27:12.803Z,48.83
2018-02-17T19:29:39.710Z,48.42
2018-02-17T19:32:06.615Z,52.10
2018-02-17T19:34:33.767Z,50.70
2018-02-17T19:37:00.799Z,50.75
2018-02-17T19:39:28.439Z,57.42
2018-02-17T19:41:55.291Z,57.45
2018-02-17T19:44:22.471Z,50.42
2018-02-17T19:46:49.456Z,58.78
2018-02-17T19:49:16.454Z,53.13
2018-02-17T19:51:43.464Z,49.65
2018-02-17T19:54:10.558Z,53.53
2018-02-17T19:56:39.094Z,44.97
2018-02-17T19:59:06.089Z,50.65
2018-02-17T20:01:33.064Z,60.65
2018-02-17T20:04:00.057Z,52.67
2018-02-17T20:06:27.702Z,49.35
2018-02-17T20:08:54.631Z,51.90
2018-02-17T20:11:21.647Z,46.50
2018-02-17T20:13:51.534Z,53.20
2018-02-17T20:16:18.462Z,46.55
2018-02-17T20:18:46.273Z,53.10
2018-02-17T20:21:13.188Z,50.08
2018-02-17T20:23:40.026Z,51.88
2018-02-17T20:26:07.039Z,64.35
2018-02-17T20:28:34.125Z,59.38
2018-02-17T20:31:01.028Z,58.78
2018-02-17T20:33:27.977Z,51.75
2018-02-17T20:35:55.086Z,57.83
2018-02-17T20:38:22.000Z,53.75
2018-02-17T20:40:48.944Z,58.45
2018-02-17T20:43:16.288Z,57.30
2018-02-17T20:45:43.175Z,55.12
2018-02-17T20:48:10.163Z,50.47
2018-02-17T20:50:37.106Z,56.60
2018-02-17T20:53:05.083Z,51.03
2018-02-17T20:55:32.666Z,57.40
2018-02-17T20:57:59.626Z,59.85
2018-02-17T21:00:26.603Z,57.38
2018-02-17T21:02:54.601Z,66.37
2018-02-17T22:27:24.399Z,58.53
2018-02-17T22:29:51.239Z,60.00
2018-02-17T22:32:18.904Z,59.22
2018-02-17T22:34:46.608Z,58.70
2018-02-17T22:37:13.434Z,64.30
2018-02-17T22:39:41.035Z,60.33
2018-02-17T22:42:07.899Z,60.58
2018-02-17T22:44:34.754Z,63.25
2018-02-17T22:47:01.646Z,64.40
2018-02-17T22:49:28.487Z,57.35
2018-02-17T22:51:55.320Z,71.30
2018-02-17T22:54:22.242Z,59.28
2018-02-17T22:56:49.823Z,68.60
2018-02-17T22:59:16.655Z,59.38
2018-02-17T23:01:44.257Z,61.47
2018-02-17T23:04:11.155Z,73.22
2018-02-17T23:06:38.022Z,64.30
2018-02-17T23:09:05.582Z,56.37
2018-02-17T23:11:33.162Z,63.67
2018-02-17T23:14:00.035Z,55.75
2018-02-17T23:16:26.888Z,60.80
2018-02-17T23:18:53.742Z,67.60
2018-02-17T23:21:20.545Z,60.10
2018-02-17T23:23:47.423Z,68.07
2018-02-17T23:26:14.306Z,62.05
2018-02-17T23:28:41.142Z,60.28
2018-02-17T23:31:08.013Z,59.08
2018-02-17T23:33:34.880Z,65.18
2018-02-17T23:36:01.821Z,64.82
2018-02-17T23:38:28.658Z,62.38
2018-02-17T23:40:56.279Z,57.47
2018-02-17T23:43:23.115Z,62.55
2018-02-17T23:45:50.017Z,58.13
2018-02-17T23:48:16.878Z,68.00
2018-02-17T23:50:43.734Z,69.32
2018-02-17T23:53:10.537Z,64.55
2018-02-17T23:55:37.382Z,71.87
2018-02-17T23:58:04.255Z,66.85
